sensor_id;sensor_type;location;lat;lon;timestamp;P1;durP1;ratioP1;P2;durP2;ratioP2
15230;SDS011;32569;51.762;8.564;2023-06-01T00:00:10;5.67;;;4.90;;
15230;SDS011;32569;51.762;8.564;2023-06-01T00:02:39;9.07;;;5.07;;
15230;SDS011;32569;51.762;8.564;2023-06-01T00:05:09;7.53;;;4.83;;
15230;SDS011;32569;51.762;8.564;2023-06-01T00:07:36;8.63;;;5.20;;
15230;SDS011;32569;51.762;8.564;2023-06-01T00:10:03;7.27;;;4.37;;
15230;SDS011;32569;51.762;8.564;2023-06-01T00:12:30;7.23;;;5.03;;
15230;SDS011;32569;51.762;8.564;2023-06-01T00:14:56;5.80;;;4.97;;
15230;SDS011;32569;51.762;8.564;2023-06-01T00:17:23;5.77;;;4.40;;
15230;SDS011;32569;51.762;8.564;2023-06-01T00:19:50;8.03;;;5.47;;
15230;SDS011;32569;51.762;8.564;2023-06-01T00:22:19;5.33;;;4.83;;
15230;SDS011;32569;51.762;8.564;2023-06-01T00:24:46;7.53;;;5.60;;
15230;SDS011;32569;51.762;8.564;2023-06-01T00:27:12;6.37;;;5.30;;
15230;SDS011;32569;51.762;8.564;2023-06-01T00:29:39;8.20;;;5.27;;
15230;SDS011;32569;51.762;8.564;2023-06-01T00:32:06;7.90;;;5.00;;
15230;SDS011;32569;51.762;8.564;2023-06-01T00:34:33;8.87;;;6.00;;
15230;SDS011;32569;51.762;8.564;2023-06-01T00:36:59;5.93;;;5.27;;
15230;SDS011;32569;51.762;8.564;2023-06-01T00:39:27;6.73;;;5.50;;
15230;SDS011;32569;51.762;8.564;2023-06-01T00:41:54;5.97;;;5.37;;
15230;SDS011;32569;51.762;8.564;2023-06-01T00:44:21;9.73;;;5.80;;
15230;SDS011;32569;51.762;8.564;2023-06-01T00:46:47;7.60;;;5.60;;
15230;SDS011;32569;51.762;8.564;2023-06-01T00:49:16;7.93;;;5.67;;
15230;SDS011;32569;51.762;8.564;2023-06-01T00:51:45;7.60;;;6.07;;
15230;SDS011;32569;51.762;8.564;2023-06-01T00:54:13;7.53;;;5.90;;
15230;SDS011;32569;51.762;8.564;2023-06-01T00:56:41;8.93;;;5.63;;
15230;SDS011;32569;51.762;8.564;2023-06-01T00:59:08;8.33;;;6.07;;
15230;SDS011;32569;51.762;8.564;2023-06-01T01:01:35;8.63;;;6.20;;
15230;SDS011;32569;51.762;8.564;2023-06-01T01:04:04;8.30;;;6.57;;
15230;SDS011;32569;51.762;8.564;2023-06-01T01:06:35;8.13;;;6.23;;
15230;SDS011;32569;51.762;8.564;2023-06-01T01:09:19;9.47;;;6.43;;
15230;SDS011;32569;51.762;8.564;2023-06-01T01:11:57;13.20;;;7.80;;
15230;SDS011;32569;51.762;8.564;2023-06-01T01:14:28;11.97;;;7.60;;
15230;SDS011;32569;51.762;8.564;2023-06-01T01:17:01;11.07;;;7.80;;
15230;SDS011;32569;51.762;8.564;2023-06-01T01:19:35;11.87;;;7.80;;
15230;SDS011;32569;51.762;8.564;2023-06-01T01:22:20;10.07;;;7.60;;
15230;SDS011;32569;51.762;8.564;2023-06-01T01:25:02;14.10;;;8.40;;
15230;SDS011;32569;51.762;8.564;2023-06-01T01:27:53;9.67;;;7.73;;
15230;SDS011;32569;51.762;8.564;2023-06-01T01:30:31;9.10;;;7.80;;
15230;SDS011;32569;51.762;8.564;2023-06-01T01:33:01;12.77;;;8.60;;
15230;SDS011;32569;51.762;8.564;2023-06-01T01:35:29;11.57;;;8.33;;
15230;SDS011;32569;51.762;8.564;2023-06-01T01:37:58;10.77;;;8.07;;
15230;SDS011;32569;51.762;8.564;2023-06-01T01:40:24;12.83;;;9.70;;
15230;SDS011;32569;51.762;8.564;2023-06-01T01:42:51;18.07;;;9.63;;
15230;SDS011;32569;51.762;8.564;2023-06-01T01:45:18;13.33;;;9.30;;
15230;SDS011;32569;51.762;8.564;2023-06-01T01:47:49;12.53;;;9.53;;
15230;SDS011;32569;51.762;8.564;2023-06-01T01:50:21;14.37;;;9.07;;
15230;SDS011;32569;51.762;8.564;2023-06-01T01:52:52;13.30;;;9.27;;
15230;SDS011;32569;51.762;8.564;2023-06-01T01:55:20;15.43;;;10.27;;
15230;SDS011;32569;51.762;8.564;2023-06-01T01:57:49;14.83;;;8.97;;
15230;SDS011;32569;51.762;8.564;2023-06-01T02:00:17;12.97;;;9.50;;
15230;SDS011;32569;51.762;8.564;2023-06-01T02:02:45;12.30;;;9.33;;
15230;SDS011;32569;51.762;8.564;2023-06-01T02:05:13;16.63;;;10.10;;
15230;SDS011;32569;51.762;8.564;2023-06-01T02:07:40;16.33;;;10.57;;
15230;SDS011;32569;51.762;8.564;2023-06-01T02:10:07;15.37;;;10.63;;
15230;SDS011;32569;51.762;8.564;2023-06-01T02:12:34;16.47;;;10.97;;
15230;SDS011;32569;51.762;8.564;2023-06-01T02:15:00;14.33;;;10.00;;
15230;SDS011;32569;51.762;8.564;2023-06-01T02:17:27;14.77;;;11.10;;
15230;SDS011;32569;51.762;8.564;2023-06-01T02:19:53;14.23;;;10.83;;
15230;SDS011;32569;51.762;8.564;2023-06-01T02:22:21;12.87;;;9.60;;
15230;SDS011;32569;51.762;8.564;2023-06-01T02:24:48;13.87;;;10.80;;
15230;SDS011;32569;51.762;8.564;2023-06-01T02:27:15;13.40;;;10.30;;
15230;SDS011;32569;51.762;8.564;2023-06-01T02:29:41;16.87;;;11.00;;
15230;SDS011;32569;51.762;8.564;2023-06-01T02:32:08;13.07;;;10.87;;
15230;SDS011;32569;51.762;8.564;2023-06-01T02:34:35;13.47;;;9.77;;
15230;SDS011;32569;51.762;8.564;2023-06-01T02:37:04;14.07;;;10.90;;
15230;SDS011;32569;51.762;8.564;2023-06-01T02:39:33;15.93;;;10.63;;
15230;SDS011;32569;51.762;8.564;2023-06-01T02:41:59;14.17;;;10.63;;
15230;SDS011;32569;51.762;8.564;2023-06-01T02:44:26;14.20;;;10.53;;
15230;SDS011;32569;51.762;8.564;2023-06-01T02:46:53;12.63;;;9.93;;
15230;SDS011;32569;51.762;8.564;2023-06-01T02:49:20;13.17;;;10.23;;
15230;SDS011;32569;51.762;8.564;2023-06-01T02:51:46;14.20;;;10.33;;
15230;SDS011;32569;51.762;8.564;2023-06-01T02:54:13;16.80;;;11.00;;
15230;SDS011;32569;51.762;8.564;2023-06-01T02:56:41;15.30;;;10.93;;
15230;SDS011;32569;51.762;8.564;2023-06-01T02:59:07;14.97;;;10.53;;
15230;SDS011;32569;51.762;8.564;2023-06-01T03:01:37;13.53;;;11.13;;
15230;SDS011;32569;51.762;8.564;2023-06-01T03:04:04;13.93;;;10.57;;
15230;SDS011;32569;51.762;8.564;2023-06-01T03:06:32;13.17;;;11.10;;
15230;SDS011;32569;51.762;8.564;2023-06-01T03:09:02;17.17;;;11.70;;
15230;SDS011;32569;51.762;8.564;2023-06-01T03:11:29;14.67;;;11.10;;
15230;SDS011;32569;51.762;8.564;2023-06-01T03:13:57;14.23;;;11.30;;
15230;SDS011;32569;51.762;8.564;2023-06-01T03:16:23;15.20;;;11.73;;
15230;SDS011;32569;51.762;8.564;2023-06-01T03:18:50;17.77;;;12.40;;
15230;SDS011;32569;51.762;8.564;2023-06-01T03:21:18;13.53;;;9.97;;
15230;SDS011;32569;51.762;8.564;2023-06-01T03:23:44;15.53;;;11.27;;
15230;SDS011;32569;51.762;8.564;2023-06-01T03:26:11;15.40;;;11.70;;
15230;SDS011;32569;51.762;8.564;2023-06-01T03:28:39;12.97;;;11.47;;
15230;SDS011;32569;51.762;8.564;2023-06-01T03:31:07;17.20;;;11.23;;
15230;SDS011;32569;51.762;8.564;2023-06-01T03:33:36;15.63;;;10.57;;
15230;SDS011;32569;51.762;8.564;2023-06-01T03:36:02;15.27;;;11.60;;
15230;SDS011;32569;51.762;8.564;2023-06-01T03:38:29;14.37;;;11.17;;
15230;SDS011;32569;51.762;8.564;2023-06-01T03:40:56;14.40;;;11.40;;
15230;SDS011;32569;51.762;8.564;2023-06-01T03:43:22;13.40;;;10.00;;
15230;SDS011;32569;51.762;8.564;2023-06-01T03:45:49;13.13;;;10.33;;
15230;SDS011;32569;51.762;8.564;2023-06-01T03:48:20;12.27;;;10.30;;
15230;SDS011;32569;51.762;8.564;2023-06-01T03:50:47;15.23;;;10.60;;
15230;SDS011;32569;51.762;8.564;2023-06-01T03:53:14;16.00;;;11.40;;
15230;SDS011;32569;51.762;8.564;2023-06-01T03:55:40;15.60;;;11.47;;
15230;SDS011;32569;51.762;8.564;2023-06-01T03:58:07;15.07;;;10.90;;
15230;SDS011;32569;51.762;8.564;2023-06-01T04:00:33;12.53;;;9.93;;
15230;SDS011;32569;51.762;8.564;2023-06-01T04:03:01;16.50;;;10.67;;
15230;SDS011;32569;51.762;8.564;2023-06-01T04:05:33;10.93;;;9.83;;
15230;SDS011;32569;51.762;8.564;2023-06-01T04:08:01;15.00;;;11.03;;
15230;SDS011;32569;51.762;8.564;2023-06-01T04:10:28;14.03;;;10.50;;
15230;SDS011;32569;51.762;8.564;2023-06-01T04:12:54;12.13;;;10.27;;
15230;SDS011;32569;51.762;8.564;2023-06-01T04:15:21;11.47;;;9.37;;
15230;SDS011;32569;51.762;8.564;2023-06-01T04:17:48;13.73;;;10.30;;
15230;SDS011;32569;51.762;8.564;2023-06-01T04:20:15;12.90;;;9.73;;
15230;SDS011;32569;51.762;8.564;2023-06-01T04:22:44;11.97;;;9.10;;
15230;SDS011;32569;51.762;8.564;2023-06-01T04:25:14;11.30;;;9.30;;
15230;SDS011;32569;51.762;8.564;2023-06-01T04:27:43;13.97;;;10.27;;
15230;SDS011;32569;51.762;8.564;2023-06-01T04:30:10;14.87;;;9.83;;
15230;SDS011;32569;51.762;8.564;2023-06-01T04:32:38;15.57;;;10.60;;
15230;SDS011;32569;51.762;8.564;2023-06-01T04:35:07;16.83;;;10.50;;
15230;SDS011;32569;51.762;8.564;2023-06-01T04:37:34;12.90;;;9.40;;
15230;SDS011;32569;51.762;8.564;2023-06-01T04:40:04;11.73;;;9.10;;
15230;SDS011;32569;51.762;8.564;2023-06-01T04:42:32;11.43;;;9.30;;
15230;SDS011;32569;51.762;8.564;2023-06-01T04:44:59;10.10;;;9.00;;
15230;SDS011;32569;51.762;8.564;2023-06-01T04:47:26;10.67;;;9.57;;
15230;SDS011;32569;51.762;8.564;2023-06-01T04:49:53;10.93;;;9.20;;
15230;SDS011;32569;51.762;8.564;2023-06-01T04:52:21;11.87;;;9.57;;
15230;SDS011;32569;51.762;8.564;2023-06-01T04:54:47;14.90;;;9.80;;
15230;SDS011;32569;51.762;8.564;2023-06-01T04:57:16;12.27;;;8.50;;
15230;SDS011;32569;51.762;8.564;2023-06-01T04:59:44;13.90;;;9.20;;
15230;SDS011;32569;51.762;8.564;2023-06-01T05:02:10;11.77;;;8.07;;
15230;SDS011;32569;51.762;8.564;2023-06-01T05:04:37;12.80;;;8.87;;
15230;SDS011;32569;51.762;8.564;2023-06-01T05:07:04;9.87;;;8.23;;
15230;SDS011;32569;51.762;8.564;2023-06-01T05:09:31;13.70;;;8.63;;
15230;SDS011;32569;51.762;8.564;2023-06-01T05:11:57;11.43;;;8.23;;
15230;SDS011;32569;51.762;8.564;2023-06-01T05:14:25;10.93;;;8.03;;
15230;SDS011;32569;51.762;8.564;2023-06-01T05:16:52;11.67;;;8.70;;
15230;SDS011;32569;51.762;8.564;2023-06-01T05:19:18;11.70;;;8.60;;
15230;SDS011;32569;51.762;8.564;2023-06-01T05:21:46;11.97;;;8.53;;
15230;SDS011;32569;51.762;8.564;2023-06-01T05:24:13;12.40;;;8.77;;
15230;SDS011;32569;51.762;8.564;2023-06-01T05:26:39;11.43;;;8.40;;
15230;SDS011;32569;51.762;8.564;2023-06-01T05:29:06;12.80;;;8.20;;
15230;SDS011;32569;51.762;8.564;2023-06-01T05:31:34;11.73;;;8.47;;
15230;SDS011;32569;51.762;8.564;2023-06-01T05:34:01;11.70;;;8.33;;
15230;SDS011;32569;51.762;8.564;2023-06-01T05:36:28;11.73;;;8.97;;
15230;SDS011;32569;51.762;8.564;2023-06-01T05:38:56;13.80;;;8.20;;
15230;SDS011;32569;51.762;8.564;2023-06-01T05:41:23;12.23;;;8.17;;
15230;SDS011;32569;51.762;8.564;2023-06-01T05:43:50;12.13;;;9.00;;
15230;SDS011;32569;51.762;8.564;2023-06-01T05:46:18;10.33;;;7.93;;
15230;SDS011;32569;51.762;8.564;2023-06-01T05:48:46;11.27;;;8.33;;
15230;SDS011;32569;51.762;8.564;2023-06-01T05:51:12;9.80;;;8.00;;
15230;SDS011;32569;51.762;8.564;2023-06-01T05:53:40;11.63;;;8.23;;
15230;SDS011;32569;51.762;8.564;2023-06-01T05:56:07;11.47;;;8.83;;
15230;SDS011;32569;51.762;8.564;2023-06-01T05:58:35;15.00;;;10.27;;
15230;SDS011;32569;51.762;8.564;2023-06-01T06:01:01;14.07;;;9.33;;
15230;SDS011;32569;51.762;8.564;2023-06-01T06:03:28;12.37;;;10.17;;
15230;SDS011;32569;51.762;8.564;2023-06-01T06:05:56;12.70;;;9.33;;
15230;SDS011;32569;51.762;8.564;2023-06-01T06:08:23;14.67;;;9.77;;
15230;SDS011;32569;51.762;8.564;2023-06-01T06:10:49;13.03;;;8.80;;
15230;SDS011;32569;51.762;8.564;2023-06-01T06:13:16;13.67;;;9.20;;
15230;SDS011;32569;51.762;8.564;2023-06-01T06:15:43;10.30;;;9.20;;
15230;SDS011;32569;51.762;8.564;2023-06-01T06:18:10;12.80;;;9.70;;
15230;SDS011;32569;51.762;8.564;2023-06-01T06:20:37;11.53;;;10.30;;
15230;SDS011;32569;51.762;8.564;2023-06-01T06:23:05;13.93;;;10.20;;
15230;SDS011;32569;51.762;8.564;2023-06-01T06:25:31;16.50;;;11.17;;
15230;SDS011;32569;51.762;8.564;2023-06-01T06:27:58;17.93;;;11.00;;
15230;SDS011;32569;51.762;8.564;2023-06-01T06:30:25;14.73;;;10.73;;
15230;SDS011;32569;51.762;8.564;2023-06-01T06:32:51;17.87;;;10.50;;
15230;SDS011;32569;51.762;8.564;2023-06-01T06:35:18;16.27;;;10.20;;
15230;SDS011;32569;51.762;8.564;2023-06-01T06:37:45;14.60;;;10.53;;
15230;SDS011;32569;51.762;8.564;2023-06-01T06:40:13;13.27;;;10.87;;
15230;SDS011;32569;51.762;8.564;2023-06-01T06:42:39;13.97;;;10.67;;
15230;SDS011;32569;51.762;8.564;2023-06-01T06:45:07;18.00;;;11.60;;
15230;SDS011;32569;51.762;8.564;2023-06-01T06:47:34;14.33;;;10.53;;
15230;SDS011;32569;51.762;8.564;2023-06-01T06:50:00;16.57;;;10.87;;
15230;SDS011;32569;51.762;8.564;2023-06-01T06:52:27;14.83;;;11.60;;
15230;SDS011;32569;51.762;8.564;2023-06-01T06:54:53;13.63;;;11.27;;
15230;SDS011;32569;51.762;8.564;2023-06-01T06:57:21;17.00;;;11.33;;
15230;SDS011;32569;51.762;8.564;2023-06-01T06:59:48;16.10;;;11.53;;
15230;SDS011;32569;51.762;8.564;2023-06-01T07:02:15;13.77;;;11.30;;
15230;SDS011;32569;51.762;8.564;2023-06-01T07:04:41;14.93;;;11.80;;
15230;SDS011;32569;51.762;8.564;2023-06-01T07:07:08;15.60;;;12.13;;
15230;SDS011;32569;51.762;8.564;2023-06-01T07:09:35;15.70;;;11.57;;
15230;SDS011;32569;51.762;8.564;2023-06-01T07:12:01;14.77;;;12.10;;
15230;SDS011;32569;51.762;8.564;2023-06-01T07:14:29;13.40;;;11.67;;
15230;SDS011;32569;51.762;8.564;2023-06-01T07:16:56;14.37;;;11.40;;
15230;SDS011;32569;51.762;8.564;2023-06-01T07:19:23;14.83;;;11.23;;
15230;SDS011;32569;51.762;8.564;2023-06-01T07:21:50;17.83;;;12.03;;
15230;SDS011;32569;51.762;8.564;2023-06-01T07:24:17;14.10;;;11.23;;
15230;SDS011;32569;51.762;8.564;2023-06-01T07:26:44;16.23;;;11.43;;
15230;SDS011;32569;51.762;8.564;2023-06-01T07:29:11;16.50;;;11.87;;
15230;SDS011;32569;51.762;8.564;2023-06-01T07:31:41;13.30;;;11.63;;
15230;SDS011;32569;51.762;8.564;2023-06-01T07:34:08;15.37;;;11.83;;
15230;SDS011;32569;51.762;8.564;2023-06-01T07:36:35;16.23;;;11.83;;
15230;SDS011;32569;51.762;8.564;2023-06-01T07:39:02;17.40;;;13.43;;
15230;SDS011;32569;51.762;8.564;2023-06-01T07:41:31;16.87;;;11.80;;
15230;SDS011;32569;51.762;8.564;2023-06-01T07:43:58;16.07;;;12.93;;
15230;SDS011;32569;51.762;8.564;2023-06-01T07:46:24;15.23;;;12.00;;
15230;SDS011;32569;51.762;8.564;2023-06-01T07:48:52;17.20;;;12.40;;
15230;SDS011;32569;51.762;8.564;2023-06-01T07:51:19;17.80;;;12.97;;
15230;SDS011;32569;51.762;8.564;2023-06-01T07:53:46;16.33;;;12.13;;
15230;SDS011;32569;51.762;8.564;2023-06-01T07:56:13;19.33;;;13.00;;
15230;SDS011;32569;51.762;8.564;2023-06-01T07:58:40;16.60;;;13.13;;
15230;SDS011;32569;51.762;8.564;2023-06-01T08:01:07;14.53;;;12.20;;
15230;SDS011;32569;51.762;8.564;2023-06-01T08:03:34;16.43;;;12.93;;
15230;SDS011;32569;51.762;8.564;2023-06-01T08:06:02;15.87;;;12.97;;
15230;SDS011;32569;51.762;8.564;2023-06-01T08:08:30;16.57;;;12.80;;
15230;SDS011;32569;51.762;8.564;2023-06-01T08:10:56;14.80;;;12.93;;
15230;SDS011;32569;51.762;8.564;2023-06-01T08:13:23;18.50;;;13.77;;
15230;SDS011;32569;51.762;8.564;2023-06-01T08:15:50;15.80;;;12.30;;
15230;SDS011;32569;51.762;8.564;2023-06-01T08:18:17;19.57;;;13.67;;
15230;SDS011;32569;51.762;8.564;2023-06-01T08:20:44;18.07;;;13.17;;
15230;SDS011;32569;51.762;8.564;2023-06-01T08:23:12;16.87;;;12.97;;
15230;SDS011;32569;51.762;8.564;2023-06-01T08:25:41;21.47;;;13.23;;
15230;SDS011;32569;51.762;8.564;2023-06-01T08:28:08;21.00;;;14.30;;
15230;SDS011;32569;51.762;8.564;2023-06-01T08:30:35;17.37;;;12.63;;
15230;SDS011;32569;51.762;8.564;2023-06-01T08:33:01;18.20;;;13.23;;
15230;SDS011;32569;51.762;8.564;2023-06-01T08:35:28;15.67;;;12.70;;
15230;SDS011;32569;51.762;8.564;2023-06-01T08:37:58;15.10;;;12.30;;
15230;SDS011;32569;51.762;8.564;2023-06-01T08:40:26;14.87;;;12.27;;
15230;SDS011;32569;51.762;8.564;2023-06-01T08:42:55;13.23;;;11.37;;
15230;SDS011;32569;51.762;8.564;2023-06-01T08:45:25;15.60;;;11.90;;
15230;SDS011;32569;51.762;8.564;2023-06-01T08:47:52;16.13;;;11.97;;
15230;SDS011;32569;51.762;8.564;2023-06-01T08:50:20;15.03;;;11.80;;
15230;SDS011;32569;51.762;8.564;2023-06-01T08:52:47;16.23;;;12.30;;
15230;SDS011;32569;51.762;8.564;2023-06-01T08:55:15;16.33;;;11.77;;
15230;SDS011;32569;51.762;8.564;2023-06-01T08:57:43;12.90;;;11.57;;
15230;SDS011;32569;51.762;8.564;2023-06-01T09:00:11;16.57;;;12.20;;
15230;SDS011;32569;51.762;8.564;2023-06-01T09:02:39;16.80;;;12.07;;
15230;SDS011;32569;51.762;8.564;2023-06-01T09:05:07;19.97;;;12.93;;
15230;SDS011;32569;51.762;8.564;2023-06-01T09:07:34;19.63;;;12.63;;
15230;SDS011;32569;51.762;8.564;2023-06-01T09:10:01;16.57;;;11.90;;
15230;SDS011;32569;51.762;8.564;2023-06-01T09:12:28;19.50;;;12.53;;
15230;SDS011;32569;51.762;8.564;2023-06-01T09:15:08;15.43;;;12.27;;
15230;SDS011;32569;51.762;8.564;2023-06-01T09:17:36;15.97;;;11.63;;
15230;SDS011;32569;51.762;8.564;2023-06-01T09:20:04;14.73;;;11.63;;
15230;SDS011;32569;51.762;8.564;2023-06-01T09:22:38;15.80;;;11.80;;
15230;SDS011;32569;51.762;8.564;2023-06-01T09:25:06;15.93;;;12.33;;
15230;SDS011;32569;51.762;8.564;2023-06-01T09:27:43;14.63;;;12.87;;
15230;SDS011;32569;51.762;8.564;2023-06-01T09:30:12;18.00;;;13.20;;
15230;SDS011;32569;51.762;8.564;2023-06-01T09:32:39;15.17;;;13.13;;
15230;SDS011;32569;51.762;8.564;2023-06-01T09:35:07;17.80;;;13.97;;
15230;SDS011;32569;51.762;8.564;2023-06-01T09:37:37;17.47;;;13.70;;
15230;SDS011;32569;51.762;8.564;2023-06-01T09:42:47;19.90;;;13.90;;
15230;SDS011;32569;51.762;8.564;2023-06-01T09:45:17;19.73;;;14.23;;
15230;SDS011;32569;51.762;8.564;2023-06-01T09:47:46;20.53;;;13.07;;
15230;SDS011;32569;51.762;8.564;2023-06-01T09:50:32;18.27;;;12.23;;
15230;SDS011;32569;51.762;8.564;2023-06-01T09:53:00;19.63;;;12.83;;
15230;SDS011;32569;51.762;8.564;2023-06-01T09:55:27;16.87;;;12.03;;
15230;SDS011;32569;51.762;8.564;2023-06-01T09:57:57;16.57;;;12.13;;
15230;SDS011;32569;51.762;8.564;2023-06-01T10:00:44;17.03;;;13.57;;
15230;SDS011;32569;51.762;8.564;2023-06-01T10:03:12;15.07;;;13.00;;
15230;SDS011;32569;51.762;8.564;2023-06-01T10:05:40;14.23;;;12.07;;
15230;SDS011;32569;51.762;8.564;2023-06-01T10:08:08;17.40;;;12.90;;
15230;SDS011;32569;51.762;8.564;2023-06-01T10:10:37;19.90;;;14.90;;
15230;SDS011;32569;51.762;8.564;2023-06-01T10:13:05;16.10;;;12.53;;
15230;SDS011;32569;51.762;8.564;2023-06-01T10:15:32;17.03;;;13.20;;
15230;SDS011;32569;51.762;8.564;2023-06-01T10:18:00;18.80;;;13.27;;
15230;SDS011;32569;51.762;8.564;2023-06-01T10:20:27;18.63;;;12.87;;
15230;SDS011;32569;51.762;8.564;2023-06-01T10:22:55;19.23;;;13.23;;
15230;SDS011;32569;51.762;8.564;2023-06-01T10:25:22;20.50;;;13.50;;
15230;SDS011;32569;51.762;8.564;2023-06-01T10:27:52;17.17;;;13.47;;
15230;SDS011;32569;51.762;8.564;2023-06-01T10:30:24;18.40;;;13.07;;
15230;SDS011;32569;51.762;8.564;2023-06-01T10:32:50;16.73;;;13.30;;
15230;SDS011;32569;51.762;8.564;2023-06-01T10:38:34;15.17;;;12.53;;
15230;SDS011;32569;51.762;8.564;2023-06-01T10:43:56;15.93;;;12.77;;
15230;SDS011;32569;51.762;8.564;2023-06-01T10:46:36;16.47;;;11.63;;
15230;SDS011;32569;51.762;8.564;2023-06-01T10:49:05;16.93;;;11.60;;
15230;SDS011;32569;51.762;8.564;2023-06-01T10:51:32;14.30;;;11.97;;
15230;SDS011;32569;51.762;8.564;2023-06-01T10:57:23;14.57;;;11.87;;
15230;SDS011;32569;51.762;8.564;2023-06-01T11:02:56;18.47;;;12.37;;
15230;SDS011;32569;51.762;8.564;2023-06-01T11:05:33;17.63;;;15.17;;
15230;SDS011;32569;51.762;8.564;2023-06-01T11:11:21;16.00;;;11.53;;
15230;SDS011;32569;51.762;8.564;2023-06-01T11:16:37;15.33;;;11.00;;
15230;SDS011;32569;51.762;8.564;2023-06-01T11:19:04;13.77;;;10.80;;
15230;SDS011;32569;51.762;8.564;2023-06-01T11:21:35;16.50;;;12.57;;
15230;SDS011;32569;51.762;8.564;2023-06-01T11:24:09;13.10;;;10.53;;
15230;SDS011;32569;51.762;8.564;2023-06-01T11:26:41;13.83;;;11.80;;
15230;SDS011;32569;51.762;8.564;2023-06-01T11:29:11;14.53;;;10.57;;
15230;SDS011;32569;51.762;8.564;2023-06-01T11:31:43;15.00;;;11.33;;
15230;SDS011;32569;51.762;8.564;2023-06-01T11:34:12;12.90;;;10.73;;
15230;SDS011;32569;51.762;8.564;2023-06-01T11:36:41;14.07;;;10.63;;
15230;SDS011;32569;51.762;8.564;2023-06-01T11:39:19;12.20;;;10.57;;
15230;SDS011;32569;51.762;8.564;2023-06-01T11:41:48;12.27;;;10.60;;
15230;SDS011;32569;51.762;8.564;2023-06-01T11:44:20;14.50;;;10.37;;
15230;SDS011;32569;51.762;8.564;2023-06-01T11:46:50;11.43;;;9.70;;
15230;SDS011;32569;51.762;8.564;2023-06-01T11:49:17;11.77;;;9.10;;
15230;SDS011;32569;51.762;8.564;2023-06-01T11:51:44;12.43;;;10.20;;
15230;SDS011;32569;51.762;8.564;2023-06-01T11:54:11;11.77;;;9.90;;
15230;SDS011;32569;51.762;8.564;2023-06-01T11:56:38;13.60;;;10.10;;
15230;SDS011;32569;51.762;8.564;2023-06-01T11:59:05;12.07;;;10.13;;
15230;SDS011;32569;51.762;8.564;2023-06-01T12:01:36;12.43;;;10.30;;
15230;SDS011;32569;51.762;8.564;2023-06-01T12:04:11;10.00;;;8.93;;
15230;SDS011;32569;51.762;8.564;2023-06-01T12:06:38;10.17;;;9.03;;
15230;SDS011;32569;51.762;8.564;2023-06-01T12:09:05;12.43;;;10.10;;
15230;SDS011;32569;51.762;8.564;2023-06-01T12:11:33;13.13;;;10.23;;
15230;SDS011;32569;51.762;8.564;2023-06-01T12:14:00;12.60;;;9.73;;
15230;SDS011;32569;51.762;8.564;2023-06-01T12:19:23;13.67;;;9.70;;
15230;SDS011;32569;51.762;8.564;2023-06-01T12:21:50;10.30;;;9.17;;
15230;SDS011;32569;51.762;8.564;2023-06-01T12:24:19;14.43;;;9.43;;
15230;SDS011;32569;51.762;8.564;2023-06-01T12:26:53;11.63;;;9.00;;
15230;SDS011;32569;51.762;8.564;2023-06-01T12:29:33;10.83;;;8.83;;
15230;SDS011;32569;51.762;8.564;2023-06-01T12:32:02;10.60;;;8.40;;
15230;SDS011;32569;51.762;8.564;2023-06-01T12:34:29;10.80;;;8.37;;
15230;SDS011;32569;51.762;8.564;2023-06-01T12:36:56;13.67;;;8.50;;
15230;SDS011;32569;51.762;8.564;2023-06-01T12:39:31;10.57;;;8.87;;
15230;SDS011;32569;51.762;8.564;2023-06-01T12:42:01;10.00;;;9.00;;
15230;SDS011;32569;51.762;8.564;2023-06-01T12:44:29;11.60;;;9.17;;
15230;SDS011;32569;51.762;8.564;2023-06-01T12:46:56;13.37;;;9.30;;
15230;SDS011;32569;51.762;8.564;2023-06-01T12:49:25;11.50;;;9.43;;
15230;SDS011;32569;51.762;8.564;2023-06-01T12:51:52;10.17;;;9.00;;
15230;SDS011;32569;51.762;8.564;2023-06-01T12:54:20;11.63;;;9.70;;
15230;SDS011;32569;51.762;8.564;2023-06-01T12:56:47;12.40;;;9.40;;
15230;SDS011;32569;51.762;8.564;2023-06-01T12:59:14;12.50;;;11.20;;
15230;SDS011;32569;51.762;8.564;2023-06-01T13:01:41;14.83;;;12.27;;
15230;SDS011;32569;51.762;8.564;2023-06-01T13:04:08;17.50;;;12.50;;
15230;SDS011;32569;51.762;8.564;2023-06-01T13:06:36;14.77;;;12.10;;
15230;SDS011;32569;51.762;8.564;2023-06-01T13:09:04;17.17;;;12.70;;
15230;SDS011;32569;51.762;8.564;2023-06-01T13:11:31;18.33;;;12.90;;
15230;SDS011;32569;51.762;8.564;2023-06-01T13:13:58;16.10;;;12.70;;
15230;SDS011;32569;51.762;8.564;2023-06-01T13:16:25;16.30;;;12.77;;
15230;SDS011;32569;51.762;8.564;2023-06-01T13:18:51;16.77;;;12.27;;
15230;SDS011;32569;51.762;8.564;2023-06-01T13:21:18;17.27;;;13.40;;
15230;SDS011;32569;51.762;8.564;2023-06-01T13:23:46;16.50;;;12.97;;
15230;SDS011;32569;51.762;8.564;2023-06-01T13:26:13;12.33;;;11.07;;
15230;SDS011;32569;51.762;8.564;2023-06-01T13:28:40;11.90;;;10.37;;
15230;SDS011;32569;51.762;8.564;2023-06-01T13:31:07;13.37;;;11.23;;
15230;SDS011;32569;51.762;8.564;2023-06-01T13:33:34;14.17;;;10.47;;
15230;SDS011;32569;51.762;8.564;2023-06-01T13:36:01;15.23;;;10.67;;
15230;SDS011;32569;51.762;8.564;2023-06-01T13:38:28;14.20;;;10.03;;
15230;SDS011;32569;51.762;8.564;2023-06-01T13:40:57;10.73;;;9.63;;
15230;SDS011;32569;51.762;8.564;2023-06-01T13:43:23;11.10;;;10.03;;
15230;SDS011;32569;51.762;8.564;2023-06-01T13:45:50;10.53;;;9.33;;
15230;SDS011;32569;51.762;8.564;2023-06-01T13:48:16;9.57;;;8.53;;
15230;SDS011;32569;51.762;8.564;2023-06-01T13:50:43;9.87;;;8.57;;
15230;SDS011;32569;51.762;8.564;2023-06-01T13:53:10;9.50;;;8.53;;
15230;SDS011;32569;51.762;8.564;2023-06-01T13:55:37;10.80;;;8.40;;
15230;SDS011;32569;51.762;8.564;2023-06-01T13:58:06;9.30;;;8.13;;
15230;SDS011;32569;51.762;8.564;2023-06-01T14:00:32;10.33;;;9.20;;
15230;SDS011;32569;51.762;8.564;2023-06-01T14:02:59;9.77;;;8.10;;
15230;SDS011;32569;51.762;8.564;2023-06-01T14:05:26;8.80;;;7.90;;
15230;SDS011;32569;51.762;8.564;2023-06-01T14:07:52;9.33;;;7.80;;
15230;SDS011;32569;51.762;8.564;2023-06-01T14:10:19;9.40;;;7.70;;
15230;SDS011;32569;51.762;8.564;2023-06-01T14:12:46;10.10;;;8.50;;
15230;SDS011;32569;51.762;8.564;2023-06-01T14:15:14;9.83;;;7.87;;
15230;SDS011;32569;51.762;8.564;2023-06-01T14:17:41;9.77;;;8.03;;
15230;SDS011;32569;51.762;8.564;2023-06-01T14:20:08;9.67;;;8.67;;
15230;SDS011;32569;51.762;8.564;2023-06-01T14:22:35;12.67;;;11.37;;
15230;SDS011;32569;51.762;8.564;2023-06-01T14:25:02;11.00;;;9.77;;
15230;SDS011;32569;51.762;8.564;2023-06-01T14:27:30;11.77;;;10.07;;
15230;SDS011;32569;51.762;8.564;2023-06-01T14:29:56;11.17;;;10.07;;
15230;SDS011;32569;51.762;8.564;2023-06-01T14:32:24;12.23;;;11.03;;
15230;SDS011;32569;51.762;8.564;2023-06-01T14:34:51;11.53;;;10.33;;
15230;SDS011;32569;51.762;8.564;2023-06-01T14:37:17;11.30;;;10.17;;
15230;SDS011;32569;51.762;8.564;2023-06-01T14:39:44;12.17;;;10.33;;
15230;SDS011;32569;51.762;8.564;2023-06-01T14:42:11;11.37;;;10.17;;
15230;SDS011;32569;51.762;8.564;2023-06-01T14:44:38;13.13;;;11.07;;
15230;SDS011;32569;51.762;8.564;2023-06-01T14:47:05;11.53;;;9.50;;
15230;SDS011;32569;51.762;8.564;2023-06-01T14:49:33;9.73;;;8.83;;
15230;SDS011;32569;51.762;8.564;2023-06-01T14:51:59;10.70;;;9.60;;
15230;SDS011;32569;51.762;8.564;2023-06-01T14:54:26;9.87;;;8.87;;
15230;SDS011;32569;51.762;8.564;2023-06-01T14:56:53;9.40;;;8.50;;